createdAt,value
2023-03-05T00:01:55.534Z,6.05
2023-03-05T00:04:23.493Z,5.99
2023-03-05T00:06:50.112Z,5.93
2023-03-05T00:09:16.968Z,5.88
2023-03-05T00:11:44.098Z,5.83
2023-03-05T00:14:11.086Z,5.85
2023-03-05T00:16:37.655Z,5.81
2023-03-05T00:19:04.346Z,5.79
2023-03-05T00:21:34.061Z,5.75
2023-03-05T00:24:02.648Z,5.73
2023-03-05T00:26:31.080Z,5.65
2023-03-05T00:28:58.581Z,5.67
2023-03-05T00:31:30.566Z,5.42
2023-03-05T00:34:00.381Z,5.39
2023-03-05T00:36:28.307Z,5.39
2023-03-05T00:38:55.148Z,5.01
2023-03-05T00:41:21.828Z,4.87
2023-03-05T00:43:48.615Z,4.85
2023-03-05T00:46:15.534Z,4.84
2023-03-05T00:48:42.185Z,4.76
2023-03-05T00:51:09.318Z,4.78
2023-03-05T00:53:36.018Z,4.85
2023-03-05T00:56:02.613Z,4.87
2023-03-05T00:58:29.820Z,4.92
2023-03-05T01:01:01.512Z,4.94
2023-03-05T01:03:29.251Z,4.98
2023-03-05T01:05:55.983Z,5.03
2023-03-05T01:08:22.695Z,5.04
2023-03-05T01:10:49.254Z,5.06
2023-03-05T01:13:15.986Z,5.13
2023-03-05T01:15:42.549Z,5.19
2023-03-05T01:18:09.280Z,5.08
2023-03-05T01:20:36.444Z,4.98
2023-03-05T01:23:03.240Z,4.87
2023-03-05T01:25:29.880Z,4.75
2023-03-05T01:27:56.872Z,4.70
2023-03-05T01:30:23.581Z,4.73
2023-03-05T01:32:50.272Z,4.73
2023-03-05T01:35:20.532Z,4.74
2023-03-05T01:37:47.439Z,4.77
2023-03-05T01:40:16.920Z,4.79
2023-03-05T01:42:48.785Z,4.83
2023-03-05T01:45:18.033Z,4.84
2023-03-05T01:47:45.376Z,4.84
2023-03-05T01:50:17.465Z,4.78
2023-03-05T01:52:48.931Z,4.75
2023-03-05T01:55:19.824Z,4.75
2023-03-05T01:57:53.942Z,4.71
2023-03-05T02:00:26.427Z,4.68
2023-03-05T02:02:53.538Z,4.70
2023-03-05T02:05:27.048Z,4.65
2023-03-05T02:07:59.117Z,4.69
2023-03-05T02:10:28.794Z,4.71
2023-03-05T02:12:58.655Z,4.72
2023-03-05T02:15:25.393Z,4.69
2023-03-05T02:17:52.120Z,4.69
2023-03-05T02:20:22.755Z,4.65
2023-03-05T02:22:49.371Z,4.60
2023-03-05T02:25:21.866Z,4.59
2023-03-05T02:28:14.770Z,4.51
2023-03-05T02:30:41.368Z,4.48
2023-03-05T02:33:07.968Z,4.49
2023-03-05T02:35:34.554Z,4.49
2023-03-05T02:38:01.141Z,4.45
2023-03-05T02:40:27.950Z,4.43
2023-03-05T02:42:54.540Z,4.45
2023-03-05T02:45:21.497Z,4.45
2023-03-05T02:47:48.085Z,4.42
2023-03-05T02:50:14.682Z,4.37
2023-03-05T02:52:41.345Z,4.27
2023-03-05T02:55:08.365Z,4.27
2023-03-05T02:57:34.917Z,4.21
2023-03-05T03:00:01.584Z,4.21
2023-03-05T03:02:28.213Z,4.23
2023-03-05T03:04:54.860Z,4.24
2023-03-05T03:07:21.436Z,4.26
2023-03-05T03:09:48.093Z,4.27
2023-03-05T03:12:14.958Z,4.29
2023-03-05T03:14:42.680Z,4.33
2023-03-05T03:17:12.366Z,4.40
2023-03-05T03:19:40.126Z,4.42
2023-03-05T03:22:09.038Z,4.46
2023-03-05T03:24:36.924Z,4.45
2023-03-05T03:27:03.997Z,4.42
2023-03-05T03:29:31.309Z,4.45
2023-03-05T03:31:58.645Z,4.43
2023-03-05T03:34:25.998Z,4.41
2023-03-05T03:36:55.350Z,4.37
2023-03-05T03:39:22.380Z,4.27
2023-03-05T03:41:51.397Z,4.25
2023-03-05T03:44:19.656Z,4.22
2023-03-05T03:46:48.532Z,4.19
2023-03-05T03:49:19.181Z,4.23
2023-03-05T03:51:46.442Z,4.33
2023-03-05T03:54:14.495Z,4.32
2023-03-05T03:56:41.110Z,4.37
2023-03-05T03:59:08.404Z,4.42
2023-03-05T04:01:35.037Z,4.44
2023-03-05T04:04:01.772Z,4.40
2023-03-05T04:06:28.385Z,4.36
2023-03-05T04:08:54.983Z,4.32
2023-03-05T04:11:21.705Z,4.31
2023-03-05T04:13:48.850Z,4.33
2023-03-05T04:16:16.366Z,4.35
2023-03-05T04:18:44.194Z,4.35
2023-03-05T04:21:11.537Z,4.37
2023-03-05T04:23:39.335Z,4.39
2023-03-05T04:26:06.450Z,4.40
2023-03-05T04:28:33.391Z,4.43
2023-03-05T04:30:59.992Z,4.44
2023-03-05T04:33:26.551Z,4.46
2023-03-05T04:35:53.172Z,4.45
2023-03-05T04:38:19.769Z,4.45
2023-03-05T04:40:47.303Z,4.46
2023-03-05T04:43:14.030Z,4.47
2023-03-05T04:45:42.393Z,4.48
2023-03-05T04:48:10.788Z,4.50
2023-03-05T04:50:37.760Z,4.51
2023-03-05T04:53:04.456Z,4.51
2023-03-05T04:55:31.163Z,4.43
2023-03-05T04:57:57.946Z,4.33
2023-03-05T05:00:25.232Z,4.21
2023-03-05T05:02:53.362Z,4.17
2023-03-05T05:05:23.437Z,4.03
2023-03-05T05:07:50.270Z,3.91
2023-03-05T05:10:17.461Z,3.83
2023-03-05T05:12:44.062Z,3.71
2023-03-05T05:15:12.796Z,3.63
2023-03-05T05:17:39.392Z,3.49
2023-03-05T05:20:06.855Z,3.39
2023-03-05T05:22:34.601Z,3.33
2023-03-05T05:25:01.311Z,3.31
2023-03-05T05:27:28.123Z,3.33
2023-03-05T05:29:54.712Z,3.36
2023-03-05T05:32:24.051Z,3.34
2023-03-05T05:34:58.223Z,3.33
2023-03-05T05:37:26.265Z,3.21
2023-03-05T05:39:53.292Z,3.22
2023-03-05T05:42:24.505Z,3.18
2023-03-05T05:44:51.605Z,3.19
2023-03-05T05:47:18.893Z,3.22
2023-03-05T05:49:45.667Z,3.22
2023-03-05T05:52:13.304Z,3.27
2023-03-05T05:54:40.243Z,3.33
2023-03-05T05:57:07.379Z,3.44
2023-03-05T05:59:34.017Z,3.49
2023-03-05T06:02:00.698Z,3.55
2023-03-05T06:04:27.261Z,3.54
2023-03-05T06:06:53.737Z,3.56
2023-03-05T06:09:20.705Z,3.55
2023-03-05T06:11:47.642Z,3.59
2023-03-05T06:14:14.400Z,3.63
2023-03-05T06:16:41.227Z,3.66
2023-03-05T06:19:11.478Z,3.72
2023-03-05T06:21:38.084Z,3.79
2023-03-05T06:24:05.019Z,3.89
2023-03-05T06:26:31.548Z,3.99
2023-03-05T06:28:59.180Z,4.08
2023-03-05T06:31:27.449Z,4.18
2023-03-05T06:33:56.613Z,4.35
2023-03-05T06:36:25.249Z,4.50
2023-03-05T06:38:53.408Z,4.59
2023-03-05T06:41:26.215Z,4.70
2023-03-05T06:43:53.215Z,4.84
2023-03-05T06:46:28.612Z,5.04
2023-03-05T06:48:57.272Z,5.34
2023-03-05T06:51:29.805Z,5.59
2023-03-05T06:53:59.460Z,5.93
2023-03-05T06:56:26.156Z,6.42
2023-03-05T06:58:53.253Z,6.97
2023-03-05T07:01:21.261Z,7.55
2023-03-05T07:03:54.610Z,8.23
2023-03-05T07:06:22.500Z,8.87
2023-03-05T07:08:49.587Z,9.36
2023-03-05T07:11:19.224Z,9.53
2023-03-05T07:13:49.212Z,9.93
2023-03-05T07:16:19.072Z,10.53
2023-03-05T07:18:46.483Z,11.13
2023-03-05T07:21:19.386Z,11.44
2023-03-05T07:23:46.159Z,11.32
2023-03-05T07:26:12.833Z,11.55
2023-03-05T07:28:39.452Z,12.00
2023-03-05T07:31:11.547Z,12.21
2023-03-05T07:33:38.203Z,12.47
2023-03-05T07:36:07.419Z,12.67
2023-03-05T07:38:33.990Z,12.16
2023-03-05T07:41:13.437Z,12.58
2023-03-05T07:43:40.868Z,12.47
2023-03-05T07:46:09.706Z,12.58
2023-03-05T07:48:36.422Z,12.87
2023-03-05T07:51:09.225Z,13.51
2023-03-05T07:53:35.894Z,13.71
2023-03-05T07:56:02.985Z,13.73
2023-03-05T07:58:29.517Z,13.95
2023-03-05T08:00:56.021Z,13.48
2023-03-05T08:03:22.555Z,14.14
2023-03-05T08:05:49.209Z,14.23
2023-03-05T08:08:16.500Z,14.69
2023-03-05T08:10:43.070Z,14.80
2023-03-05T08:13:09.851Z,14.54
2023-03-05T08:15:39.508Z,14.73
2023-03-05T08:18:06.303Z,15.42
2023-03-05T08:20:35.678Z,16.09
2023-03-05T08:23:03.284Z,15.83
2023-03-05T08:25:29.857Z,15.09
2023-03-05T08:27:57.017Z,15.16
2023-03-05T08:30:27.141Z,15.73
2023-03-05T08:32:54.660Z,15.84
2023-03-05T08:35:21.473Z,15.12
2023-03-05T08:37:48.524Z,15.60
2023-03-05T08:40:17.941Z,16.08
2023-03-05T08:42:45.087Z,16.52
2023-03-05T08:45:12.126Z,15.66
2023-03-05T08:47:38.710Z,15.22
2023-03-05T08:50:05.705Z,15.94
2023-03-05T08:52:32.249Z,16.13
2023-03-05T08:54:58.868Z,16.31
2023-03-05T08:57:25.429Z,16.48
2023-03-05T08:59:52.014Z,15.47
2023-03-05T09:02:18.634Z,15.64
2023-03-05T09:04:45.232Z,16.03
2023-03-05T09:07:12.953Z,16.71
2023-03-05T09:09:40.363Z,16.31
2023-03-05T09:12:07.195Z,15.80
2023-03-05T09:14:33.811Z,16.70
2023-03-05T09:17:02.055Z,16.49
2023-03-05T09:19:28.620Z,16.96
2023-03-05T09:21:56.970Z,16.80
2023-03-05T09:24:23.505Z,16.84
2023-03-05T09:26:50.163Z,16.58
2023-03-05T09:29:16.773Z,16.52
2023-03-05T09:31:44.141Z,16.04
2023-03-05T09:34:11.816Z,15.66
2023-03-05T09:36:38.664Z,16.00
2023-03-05T09:39:07.007Z,15.44
2023-03-05T09:41:52.303Z,15.81
2023-03-05T09:44:27.746Z,15.97
2023-03-05T09:46:56.899Z,16.01
2023-03-05T09:49:38.391Z,16.56
2023-03-05T09:52:16.683Z,15.34
2023-03-05T09:54:48.045Z,15.70
2023-03-05T09:57:22.174Z,16.61
2023-03-05T09:59:54.152Z,16.32
2023-03-05T10:02:34.110Z,16.25
2023-03-05T10:05:20.528Z,16.04
2023-03-05T10:07:57.651Z,17.00
2023-03-05T10:10:47.682Z,16.67
2023-03-05T10:13:24.397Z,17.38
2023-03-05T10:16:25.455Z,17.35
2023-03-05T10:19:16.853Z,17.13
2023-03-05T10:21:53.534Z,16.61
2023-03-05T10:24:36.515Z,17.45
2023-03-05T10:27:09.980Z,18.24
2023-03-05T10:29:36.560Z,17.35
2023-03-05T10:32:21.874Z,18.04
2023-03-05T10:34:57.267Z,16.79
2023-03-05T10:37:32.954Z,17.12
2023-03-05T10:39:59.448Z,17.93
2023-03-05T10:42:51.916Z,17.52
2023-03-05T10:45:22.986Z,17.53
2023-03-05T10:48:03.408Z,17.86
2023-03-05T10:50:53.706Z,17.69
2023-03-05T10:53:45.146Z,17.68
2023-03-05T10:56:12.578Z,18.21
2023-03-05T10:58:39.348Z,18.12
2023-03-05T11:01:22.126Z,18.61
2023-03-05T11:03:56.702Z,16.99
2023-03-05T11:06:47.551Z,17.39
2023-03-05T11:09:18.285Z,17.49
2023-03-05T11:12:04.697Z,17.93
2023-03-05T11:14:33.667Z,17.80
2023-03-05T11:17:24.177Z,17.81
2023-03-05T11:19:50.962Z,17.88
2023-03-05T11:22:22.646Z,17.90
2023-03-05T11:25:15.574Z,16.85
2023-03-05T11:27:50.431Z,17.56
2023-03-05T11:30:24.668Z,17.79
2023-03-05T11:33:10.273Z,17.71
2023-03-05T11:35:40.241Z,17.80
2023-03-05T11:38:16.895Z,17.82
2023-03-05T11:40:43.725Z,17.87
2023-03-05T11:43:16.229Z,17.92
2023-03-05T11:45:44.199Z,17.15
2023-03-05T11:48:25.280Z,16.74
2023-03-05T11:50:56.973Z,17.24
2023-03-05T11:53:35.578Z,17.15
2023-03-05T11:56:01.908Z,17.64
2023-03-05T11:58:46.770Z,17.61
2023-03-05T12:01:25.274Z,16.90
2023-03-05T12:03:53.033Z,16.73
2023-03-05T12:06:40.943Z,17.26
2023-03-05T12:09:13.726Z,17.49
2023-03-05T12:11:40.915Z,17.68
2023-03-05T12:14:32.892Z,17.65
2023-03-05T12:17:37.934Z,17.46
2023-03-05T12:20:15.749Z,17.90
2023-03-05T12:22:44.654Z,16.88
2023-03-05T12:25:34.363Z,16.11
2023-03-05T12:28:02.290Z,16.50
2023-03-05T12:30:34.764Z,17.10
2023-03-05T12:33:03.359Z,17.34
2023-03-05T12:35:36.851Z,17.14
2023-03-05T12:38:29.025Z,16.74
2023-03-05T12:41:23.380Z,16.97
2023-03-05T12:44:05.089Z,16.84
2023-03-05T12:46:43.165Z,17.39
2023-03-05T12:49:19.072Z,17.57
2023-03-05T12:51:48.086Z,17.77
2023-03-05T12:54:26.940Z,17.77
2023-03-05T12:56:56.814Z,17.85
2023-03-05T12:59:25.973Z,17.88
2023-03-05T13:01:58.139Z,17.63
2023-03-05T13:04:31.836Z,17.44
2023-03-05T13:07:13.671Z,16.71
2023-03-05T13:09:40.377Z,16.31
2023-03-05T13:12:14.112Z,16.45
2023-03-05T13:14:45.481Z,16.44
2023-03-05T13:17:34.563Z,16.84
2023-03-05T13:20:06.084Z,17.10
2023-03-05T13:22:33.027Z,17.25
2023-03-05T13:25:15.002Z,17.19
2023-03-05T13:27:42.440Z,17.32
2023-03-05T13:30:28.155Z,17.31
2023-03-05T13:33:03.551Z,17.28
2023-03-05T13:35:33.778Z,17.34
2023-03-05T13:38:02.143Z,17.45
2023-03-05T13:40:31.114Z,17.46
2023-03-05T13:43:12.053Z,17.49
2023-03-05T13:45:43.836Z,16.98
2023-03-05T13:48:20.021Z,17.17
2023-03-05T13:50:46.612Z,17.18
2023-03-05T13:53:31.949Z,16.86
2023-03-05T13:56:02.202Z,16.78
2023-03-05T13:58:58.043Z,16.30
2023-03-05T14:01:27.460Z,16.29
2023-03-05T14:03:57.356Z,16.31
2023-03-05T14:06:27.184Z,16.54
2023-03-05T14:09:07.117Z,16.71
2023-03-05T14:11:35.511Z,16.87
2023-03-05T14:14:09.730Z,16.90
2023-03-05T14:16:36.988Z,16.85
2023-03-05T14:19:09.222Z,16.90
2023-03-05T14:21:48.144Z,16.89
2023-03-05T14:24:22.753Z,17.04
2023-03-05T14:27:14.114Z,17.06
2023-03-05T14:29:46.241Z,17.00
2023-03-05T14:32:28.276Z,16.51
2023-03-05T14:34:58.254Z,16.47
2023-03-05T14:37:32.532Z,16.65
2023-03-05T14:40:07.338Z,16.63
2023-03-05T14:42:38.725Z,16.15
2023-03-05T14:45:14.015Z,16.55
2023-03-05T14:47:41.217Z,16.41
2023-03-05T14:50:14.811Z,16.52
2023-03-05T14:52:41.432Z,16.38
2023-03-05T14:55:13.619Z,16.23
2023-03-05T14:57:40.255Z,16.35
2023-03-05T15:00:16.223Z,16.14
2023-03-05T15:02:42.773Z,16.01
2023-03-05T15:05:09.621Z,15.97
2023-03-05T15:07:36.970Z,15.97
2023-03-05T15:10:04.713Z,15.98
2023-03-05T15:12:31.250Z,15.97
2023-03-05T15:14:57.843Z,15.95
2023-03-05T15:17:37.824Z,15.89
2023-03-05T15:20:10.250Z,15.97
2023-03-05T15:22:37.326Z,15.62
2023-03-05T15:25:04.391Z,15.42
2023-03-05T15:27:30.976Z,15.51
2023-03-05T15:29:59.017Z,15.54
2023-03-05T15:32:30.633Z,15.50
2023-03-05T15:34:58.427Z,15.60
2023-03-05T15:37:26.039Z,15.57
2023-03-05T15:39:53.157Z,15.46
2023-03-05T15:42:19.712Z,15.50
2023-03-05T15:44:46.339Z,15.53
2023-03-05T15:47:12.889Z,15.55
2023-03-05T15:49:39.405Z,15.45
2023-03-05T15:52:06.111Z,15.31
2023-03-05T15:54:32.827Z,15.38
2023-03-05T15:56:59.401Z,15.39
2023-03-05T15:59:26.703Z,15.34
2023-03-05T16:01:53.388Z,15.28
2023-03-05T16:04:20.005Z,15.16
2023-03-05T16:06:49.481Z,15.12
2023-03-05T16:09:17.674Z,15.04
2023-03-05T16:11:48.070Z,15.02
2023-03-05T16:14:19.409Z,14.95
2023-03-05T16:16:46.239Z,14.93
2023-03-05T16:19:16.419Z,14.82
2023-03-05T16:21:43.107Z,14.77
2023-03-05T16:24:09.682Z,14.71
2023-03-05T16:26:38.002Z,14.62
2023-03-05T16:29:05.166Z,14.56
2023-03-05T16:31:44.961Z,14.43
2023-03-05T16:34:14.100Z,14.33
2023-03-05T16:36:45.952Z,14.24
2023-03-05T16:39:12.474Z,14.20
2023-03-05T16:41:39.514Z,14.09
2023-03-05T16:44:06.353Z,14.02
2023-03-05T16:46:35.100Z,13.92
2023-03-05T16:49:02.033Z,13.82
2023-03-05T16:51:36.294Z,13.72
2023-03-05T16:54:03.777Z,13.67
2023-03-05T16:56:30.577Z,13.61
2023-03-05T16:58:57.411Z,13.54
2023-03-05T17:01:25.422Z,13.48
2023-03-05T17:03:53.832Z,13.32
2023-03-05T17:06:26.482Z,13.25
2023-03-05T17:08:55.155Z,13.17
2023-03-05T17:11:22.294Z,13.10
2023-03-05T17:13:49.223Z,13.04
2023-03-05T17:16:17.643Z,12.95
2023-03-05T17:18:45.473Z,12.86
2023-03-05T17:21:12.370Z,12.85
2023-03-05T17:23:40.270Z,12.75
2023-03-05T17:26:09.893Z,12.66
2023-03-05T17:28:36.974Z,12.59
2023-03-05T17:31:04.042Z,12.48
2023-03-05T17:33:36.093Z,12.45
2023-03-05T17:36:03.903Z,12.39
2023-03-05T17:38:30.650Z,12.38
2023-03-05T17:40:57.475Z,12.33
2023-03-05T17:43:24.406Z,12.29
2023-03-05T17:45:51.149Z,12.23
2023-03-05T17:48:17.792Z,12.19
2023-03-05T17:50:45.146Z,12.14
2023-03-05T17:53:12.461Z,12.07
2023-03-05T17:55:40.015Z,12.02
2023-03-05T17:58:06.958Z,11.92
2023-03-05T18:00:33.800Z,11.78
2023-03-05T18:03:00.750Z,11.72
2023-03-05T18:05:28.959Z,11.62
2023-03-05T18:07:56.651Z,11.52
2023-03-05T18:10:25.442Z,11.44
2023-03-05T18:12:52.444Z,11.35
2023-03-05T18:15:21.391Z,11.22
2023-03-05T18:17:47.837Z,11.08
2023-03-05T18:20:36.513Z,10.91
2023-03-05T18:23:05.177Z,10.82
2023-03-05T18:25:32.036Z,10.78
2023-03-05T18:28:04.984Z,10.80
2023-03-05T18:30:32.422Z,10.75
2023-03-05T18:32:59.431Z,10.74
2023-03-05T18:35:26.151Z,10.71
2023-03-05T18:37:53.540Z,10.67
2023-03-05T18:40:23.509Z,10.67
2023-03-05T18:42:50.918Z,10.66
2023-03-05T18:45:20.232Z,10.66
2023-03-05T18:47:47.957Z,10.63
2023-03-05T18:50:18.481Z,10.64
2023-03-05T18:52:45.414Z,10.59
2023-03-05T18:55:21.543Z,10.52
2023-03-05T18:57:49.139Z,10.34
2023-03-05T19:00:18.649Z,10.15
2023-03-05T19:02:45.289Z,10.04
2023-03-05T19:05:13.844Z,9.92
2023-03-05T19:07:40.620Z,9.88
2023-03-05T19:10:09.862Z,9.84
2023-03-05T19:13:39.996Z,9.79
2023-03-05T19:16:12.408Z,9.74
2023-03-05T19:19:25.449Z,9.66
2023-03-05T19:21:55.228Z,9.40
2023-03-05T19:24:23.309Z,9.45
2023-03-05T19:26:55.037Z,9.56
2023-03-05T19:29:26.266Z,9.51
2023-03-05T19:31:53.684Z,9.58
2023-03-05T19:34:21.145Z,9.61
2023-03-05T19:36:48.055Z,9.67
2023-03-05T19:39:15.627Z,9.70
2023-03-05T19:41:42.386Z,9.65
2023-03-05T19:44:08.945Z,9.73
2023-03-05T19:46:35.611Z,9.77
2023-03-05T19:49:02.203Z,9.75
2023-03-05T19:51:29.180Z,9.92
2023-03-05T19:54:00.005Z,9.98
2023-03-05T19:56:27.079Z,9.79
2023-03-05T19:58:53.622Z,9.86
2023-03-05T20:01:26.028Z,9.86
2023-03-05T20:03:58.690Z,9.78
2023-03-05T20:06:26.746Z,9.76
2023-03-05T20:08:53.893Z,9.73
2023-03-05T20:11:21.795Z,9.71
2023-03-05T20:13:49.650Z,9.73
2023-03-05T20:16:25.378Z,9.70
2023-03-05T20:18:54.841Z,9.67
2023-03-05T20:21:29.153Z,9.67
2023-03-05T20:23:58.726Z,9.64
2023-03-05T20:26:26.714Z,9.63
2023-03-05T20:28:54.860Z,9.63
2023-03-05T20:31:23.687Z,9.64
2023-03-05T20:33:50.291Z,9.62
2023-03-05T20:36:16.881Z,9.60
2023-03-05T20:38:45.177Z,9.57
2023-03-05T20:41:14.347Z,9.56
2023-03-05T20:43:46.520Z,9.54
2023-03-05T20:46:16.072Z,9.55
2023-03-05T20:48:42.842Z,9.54
2023-03-05T20:51:14.723Z,9.55
2023-03-05T20:53:41.818Z,9.54
2023-03-05T20:56:08.384Z,9.52
2023-03-05T20:58:34.989Z,9.39
2023-03-05T21:01:01.602Z,9.36
2023-03-05T21:03:28.139Z,9.29
2023-03-05T21:05:56.507Z,9.24
2023-03-05T21:08:23.750Z,9.26
2023-03-05T21:10:50.728Z,9.28
2023-03-05T21:13:17.241Z,9.32
2023-03-05T21:15:43.753Z,9.26
2023-03-05T21:18:10.606Z,9.23
2023-03-05T21:20:37.138Z,9.17
2023-03-05T21:23:04.250Z,9.13
2023-03-05T21:25:32.733Z,9.10
2023-03-05T21:28:18.772Z,9.03
2023-03-05T21:30:48.516Z,8.97
2023-03-05T21:33:18.225Z,8.97
2023-03-05T21:35:45.249Z,8.96
2023-03-05T21:38:12.941Z,8.92
2023-03-05T21:40:45.317Z,8.99
2023-03-05T21:43:13.190Z,8.94
2023-03-05T21:45:40.478Z,9.00
2023-03-05T21:48:07.959Z,9.03
2023-03-05T21:50:35.350Z,9.03
2023-03-05T21:53:02.584Z,9.02
2023-03-05T21:56:25.231Z,9.04
2023-03-05T21:58:52.628Z,9.05
2023-03-05T22:01:21.786Z,9.03
2023-03-05T22:03:49.056Z,8.99
2023-03-05T22:06:19.972Z,8.99
2023-03-05T22:08:47.272Z,8.99
2023-03-05T22:11:16.505Z,9.01
2023-03-05T22:13:43.203Z,9.01
2023-03-05T22:16:10.263Z,9.01
2023-03-05T22:18:39.702Z,9.01
2023-03-05T22:21:22.265Z,9.03
2023-03-05T22:23:49.750Z,9.03
2023-03-05T22:26:16.328Z,9.02
2023-03-05T22:28:42.919Z,9.03
2023-03-05T22:31:10.360Z,9.07
2023-03-05T22:33:37.591Z,9.03
2023-03-05T22:36:09.626Z,9.05
2023-03-05T22:38:36.222Z,9.08
2023-03-05T22:41:08.381Z,9.12
2023-03-05T22:43:35.192Z,9.13
2023-03-05T22:46:16.145Z,9.17
2023-03-05T22:48:43.662Z,9.20
2023-03-05T22:51:11.376Z,9.21
2023-03-05T22:53:39.179Z,9.15
2023-03-05T22:56:16.297Z,9.12
2023-03-05T22:58:43.237Z,9.09
2023-03-05T23:01:18.492Z,9.00
2023-03-05T23:04:59.289Z,8.96
2023-03-05T23:07:33.206Z,8.74
2023-03-05T23:10:26.918Z,8.76
2023-03-05T23:12:56.630Z,8.68
2023-03-05T23:15:32.731Z,8.60
2023-03-05T23:17:59.527Z,8.51
2023-03-05T23:20:29.264Z,8.46
2023-03-05T23:22:56.475Z,8.42
2023-03-05T23:25:25.529Z,8.36
2023-03-05T23:27:52.150Z,8.29
2023-03-05T23:30:39.433Z,8.23
2023-03-05T23:33:11.905Z,8.17
2023-03-05T23:35:50.449Z,8.12
2023-03-05T23:38:17.097Z,8.08
2023-03-05T23:40:49.897Z,8.02
2023-03-05T23:43:17.965Z,7.88
2023-03-05T23:45:47.998Z,7.82
2023-03-05T23:48:15.745Z,7.77
2023-03-05T23:50:44.519Z,7.69
2023-03-05T23:53:19.545Z,7.59
2023-03-05T23:55:47.021Z,7.52
2023-03-05T23:58:14.732Z,7.52
